createdAt,value
2024-02-11T00:00:44.742Z,84.60
2024-02-11T00:03:11.740Z,84.73
2024-02-11T00:05:38.843Z,84.92
2024-02-11T00:08:09.872Z,85.00
2024-02-11T00:10:37.251Z,85.13
2024-02-11T00:13:07.229Z,85.18
2024-02-11T00:15:34.244Z,84.89
2024-02-11T00:18:01.548Z,85.04
2024-02-11T00:20:28.935Z,84.72
2024-02-11T00:22:56.200Z,84.54
2024-02-11T00:25:23.344Z,85.19
2024-02-11T00:27:53.966Z,85.21
2024-02-11T00:30:23.674Z,84.94
2024-02-11T00:32:51.038Z,85.31
2024-02-11T00:35:21.157Z,85.45
2024-02-11T00:37:49.377Z,84.50
2024-02-11T00:40:17.814Z,85.35
2024-02-11T00:42:46.683Z,84.93
2024-02-11T00:45:16.365Z,85.36
2024-02-11T00:47:43.809Z,86.06
2024-02-11T00:50:15.261Z,85.54
2024-02-11T00:52:43.046Z,86.01
2024-02-11T00:55:22.781Z,86.02
2024-02-11T00:57:52.735Z,86.09
2024-02-11T01:00:19.916Z,86.09
2024-02-11T01:02:47.066Z,86.22
2024-02-11T01:05:14.256Z,86.58
2024-02-11T01:07:42.051Z,86.28
2024-02-11T01:10:14.290Z,86.48
2024-02-11T01:12:43.552Z,86.07
2024-02-11T01:15:13.631Z,86.54
2024-02-11T01:17:45.285Z,86.64
2024-02-11T01:20:18.424Z,86.30
2024-02-11T01:22:48.346Z,85.95
2024-02-11T01:25:24.131Z,85.95
2024-02-11T01:27:51.725Z,86.25
2024-02-11T01:30:21.988Z,86.20
2024-02-11T01:32:50.337Z,86.33
2024-02-11T01:35:20.749Z,86.34
2024-02-11T01:37:48.696Z,85.97
2024-02-11T01:40:19.340Z,86.08
2024-02-11T01:42:47.817Z,86.66
2024-02-11T01:45:16.984Z,86.57
2024-02-11T01:47:47.656Z,85.66
2024-02-11T01:50:22.109Z,85.86
2024-02-11T01:52:49.661Z,85.79
2024-02-11T01:55:20.499Z,86.38
2024-02-11T01:57:48.658Z,86.31
2024-02-11T02:00:19.212Z,86.24
2024-02-11T02:02:50.253Z,85.99
2024-02-11T02:05:17.594Z,86.03
2024-02-11T02:07:44.784Z,86.19
2024-02-11T02:10:12.060Z,86.14
2024-02-11T02:12:41.806Z,86.37
2024-02-11T02:15:09.897Z,86.52
2024-02-11T02:17:37.464Z,86.10
2024-02-11T02:20:05.605Z,86.13
2024-02-11T02:22:34.981Z,86.50
2024-02-11T02:25:02.245Z,86.77
2024-02-11T02:27:31.007Z,86.98
2024-02-11T02:29:57.979Z,86.97
2024-02-11T02:32:25.072Z,86.44
2024-02-11T02:34:52.253Z,86.17
2024-02-11T02:37:19.342Z,86.10
2024-02-11T02:39:46.433Z,85.75
2024-02-11T02:42:13.739Z,86.03
2024-02-11T02:44:41.009Z,85.94
2024-02-11T02:47:08.485Z,85.60
2024-02-11T02:49:35.947Z,86.02
2024-02-11T02:52:03.713Z,86.62
2024-02-11T02:54:30.928Z,86.55
2024-02-11T02:56:59.874Z,85.95
2024-02-11T02:59:27.607Z,86.71
2024-02-11T03:02:03.256Z,86.11
2024-02-11T03:04:30.564Z,86.34
2024-02-11T03:06:57.566Z,86.14
2024-02-11T03:09:26.153Z,86.56
2024-02-11T03:11:53.394Z,86.82
2024-02-11T03:14:21.729Z,86.81
2024-02-11T03:16:49.316Z,86.75
2024-02-11T03:19:19.517Z,86.95
2024-02-11T03:21:53.827Z,86.29
2024-02-11T03:24:22.133Z,87.01
2024-02-11T03:26:49.297Z,87.41
2024-02-11T03:29:17.027Z,87.08
2024-02-11T03:31:44.175Z,86.90
2024-02-11T03:34:12.554Z,86.87
2024-02-11T03:36:43.270Z,86.87
2024-02-11T03:39:10.811Z,86.84
2024-02-11T03:41:38.063Z,86.25
2024-02-11T03:44:06.267Z,86.78
2024-02-11T03:46:33.453Z,86.95
2024-02-11T03:49:02.315Z,86.89
2024-02-11T03:51:30.178Z,86.51
2024-02-11T03:54:00.492Z,86.91
2024-02-11T03:56:31.121Z,87.09
2024-02-11T03:58:58.354Z,86.67
2024-02-11T04:01:25.512Z,86.75
2024-02-11T04:03:52.732Z,87.23
2024-02-11T04:06:22.073Z,86.65
2024-02-11T04:08:51.050Z,86.79
2024-02-11T04:11:21.920Z,87.06
2024-02-11T04:13:49.609Z,86.51
2024-02-11T04:16:17.388Z,86.91
2024-02-11T04:18:49.114Z,87.22
2024-02-11T04:21:22.342Z,86.94
2024-02-11T04:23:50.754Z,87.15
2024-02-11T04:26:19.313Z,87.02
2024-02-11T04:28:49.697Z,87.46
2024-02-11T04:31:20.317Z,87.59
2024-02-11T04:33:48.041Z,87.53
2024-02-11T04:36:18.007Z,87.60
2024-02-11T04:38:45.988Z,87.16
2024-02-11T04:41:15.288Z,87.62
2024-02-11T04:43:43.051Z,87.75
2024-02-11T04:46:10.761Z,87.58
2024-02-11T04:48:38.196Z,87.55
2024-02-11T04:51:06.177Z,87.13
2024-02-11T04:53:35.183Z,88.01
2024-02-11T04:56:02.325Z,87.17
2024-02-11T04:58:32.406Z,87.67
2024-02-11T05:01:02.454Z,87.77
2024-02-11T05:03:29.512Z,87.84
2024-02-11T05:05:56.720Z,87.65
2024-02-11T05:08:26.520Z,87.28
2024-02-11T05:10:56.136Z,87.40
2024-02-11T05:13:31.868Z,87.67
2024-02-11T05:16:01.192Z,87.64
2024-02-11T05:18:31.229Z,87.63
2024-02-11T05:20:58.572Z,87.92
2024-02-11T05:23:26.130Z,88.13
2024-02-11T05:25:53.479Z,87.67
2024-02-11T05:28:21.098Z,87.74
2024-02-11T05:30:51.304Z,88.16
2024-02-11T05:33:20.888Z,88.04
2024-02-11T05:35:50.427Z,88.33
2024-02-11T05:38:21.894Z,88.28
2024-02-11T05:40:52.721Z,89.02
2024-02-11T05:43:24.605Z,88.82
2024-02-11T05:45:51.603Z,89.12
2024-02-11T05:48:19.799Z,88.82
2024-02-11T05:50:47.780Z,88.25
2024-02-11T05:53:15.400Z,88.73
2024-02-11T05:55:42.700Z,88.58
2024-02-11T05:58:10.170Z,88.60
2024-02-11T06:00:38.202Z,88.52
2024-02-11T06:03:05.655Z,88.27
2024-02-11T06:05:33.262Z,88.50
2024-02-11T06:08:06.667Z,88.96
2024-02-11T06:10:37.747Z,88.82
2024-02-11T06:13:05.235Z,89.07
2024-02-11T06:18:03.019Z,88.85
2024-02-11T06:20:31.639Z,89.22
2024-02-11T06:22:59.224Z,88.78
2024-02-11T06:25:26.565Z,89.10
2024-02-11T06:27:54.645Z,88.95
2024-02-11T06:30:23.437Z,88.68
2024-02-11T06:32:55.267Z,89.14
2024-02-11T06:35:23.223Z,88.11
2024-02-11T06:37:51.884Z,88.61
2024-02-11T06:40:27.127Z,89.10
2024-02-11T06:42:55.940Z,89.38
2024-02-11T06:45:32.483Z,88.37
2024-02-11T06:47:59.575Z,88.48
2024-02-11T06:50:27.617Z,88.51
2024-02-11T06:52:55.028Z,88.74
2024-02-11T06:55:25.631Z,88.16
2024-02-11T06:57:54.829Z,87.85
2024-02-11T07:00:23.373Z,87.61
2024-02-11T07:02:55.121Z,87.50
2024-02-11T07:05:24.170Z,87.60
2024-02-11T07:07:54.074Z,87.63
2024-02-11T07:10:26.296Z,88.21
2024-02-11T07:12:53.560Z,87.71
2024-02-11T07:15:23.103Z,87.42
2024-02-11T07:17:55.410Z,87.43
2024-02-11T07:20:25.874Z,87.11
2024-02-11T07:22:53.242Z,86.95
2024-02-11T07:25:22.753Z,87.08
2024-02-11T07:27:49.734Z,86.60
2024-02-11T07:30:22.167Z,86.70
2024-02-11T07:32:52.436Z,86.77
2024-02-11T07:35:24.355Z,87.34
2024-02-11T07:37:52.776Z,87.84
2024-02-11T07:40:19.699Z,87.79
2024-02-11T07:42:47.521Z,87.70
2024-02-11T07:45:17.047Z,87.40
2024-02-11T07:47:47.609Z,87.05
2024-02-11T07:50:19.169Z,86.55
2024-02-11T07:52:49.177Z,86.49
2024-02-11T07:55:19.165Z,87.05
2024-02-11T07:57:50.540Z,86.90
2024-02-11T08:00:21.457Z,86.39
2024-02-11T08:02:48.828Z,86.03
2024-02-11T08:05:16.207Z,86.48
2024-02-11T08:07:44.600Z,86.31
2024-02-11T08:10:14.052Z,85.69
2024-02-11T08:12:41.618Z,85.96
2024-02-11T08:15:13.863Z,85.60
2024-02-11T08:17:44.136Z,85.95
2024-02-11T08:20:15.372Z,86.13
2024-02-11T08:22:45.301Z,85.66
2024-02-11T08:25:13.260Z,85.87
2024-02-11T08:27:41.354Z,85.22
2024-02-11T08:30:12.248Z,84.96
2024-02-11T08:32:44.760Z,85.38
2024-02-11T08:35:12.844Z,85.57
2024-02-11T08:37:42.794Z,85.34
2024-02-11T08:40:12.692Z,85.30
2024-02-11T08:42:40.239Z,85.04
2024-02-11T08:45:13.110Z,84.54
2024-02-11T08:47:42.658Z,86.07
2024-02-11T08:50:12.463Z,85.07
2024-02-11T08:52:42.335Z,85.05
2024-02-11T08:55:12.632Z,84.84
2024-02-11T08:57:39.777Z,84.88
2024-02-11T09:00:14.328Z,84.65
2024-02-11T09:02:43.704Z,84.77
2024-02-11T09:05:11.344Z,85.11
2024-02-11T09:07:44.012Z,84.17
2024-02-11T09:10:16.544Z,83.45
2024-02-11T09:12:43.722Z,85.18
2024-02-11T09:15:18.326Z,84.82
2024-02-11T09:17:48.725Z,84.54
2024-02-11T09:20:22.940Z,84.38
2024-02-11T09:22:52.862Z,84.91
2024-02-11T09:25:20.089Z,84.88
2024-02-11T09:27:49.977Z,84.78
2024-02-11T09:30:18.774Z,84.44
2024-02-11T09:32:49.899Z,84.86
2024-02-11T09:35:23.637Z,84.94
2024-02-11T09:37:52.662Z,84.75
2024-02-11T09:40:20.490Z,85.05
2024-02-11T09:42:50.890Z,85.41
2024-02-11T09:45:18.484Z,84.89
2024-02-11T09:47:50.606Z,84.77
2024-02-11T09:50:24.058Z,84.87
2024-02-11T09:52:51.857Z,85.07
2024-02-11T09:55:23.280Z,85.27
2024-02-11T09:57:56.247Z,84.72
2024-02-11T10:00:25.556Z,84.48
2024-02-11T10:02:54.832Z,85.37
2024-02-11T10:05:25.648Z,85.04
2024-02-11T10:07:56.471Z,85.00
2024-02-11T10:10:23.907Z,85.01
2024-02-11T10:12:53.015Z,84.76
2024-02-11T10:15:21.765Z,85.24
2024-02-11T10:17:49.076Z,85.00
2024-02-11T10:20:18.637Z,84.81
2024-02-11T10:22:46.438Z,84.63
2024-02-11T10:25:17.746Z,84.45
2024-02-11T10:27:46.131Z,84.92
2024-02-11T10:30:14.308Z,84.93
2024-02-11T10:32:43.337Z,85.57
2024-02-11T10:35:14.024Z,84.70
2024-02-11T10:37:52.211Z,84.63
2024-02-11T10:40:28.026Z,84.43
2024-02-11T10:42:58.002Z,85.17
2024-02-11T10:45:28.901Z,84.82
2024-02-11T10:47:56.216Z,85.38
2024-02-11T10:50:23.332Z,84.84
2024-02-11T10:52:54.548Z,84.59
2024-02-11T10:55:27.740Z,85.25
2024-02-11T10:57:55.417Z,85.40
2024-02-11T11:00:23.985Z,85.32
2024-02-11T11:02:55.026Z,85.37
2024-02-11T11:05:23.925Z,85.58
2024-02-11T11:07:56.153Z,85.30
2024-02-11T11:10:30.248Z,85.27
2024-02-11T11:13:01.184Z,85.77
2024-02-11T11:15:33.756Z,86.09
2024-02-11T11:18:10.083Z,86.08
2024-02-11T11:20:38.514Z,85.58
2024-02-11T11:23:07.918Z,85.28
2024-02-11T11:25:38.705Z,86.29
2024-02-11T11:28:16.280Z,86.30
2024-02-11T11:30:44.667Z,86.47
2024-02-11T11:33:14.937Z,86.20
2024-02-11T11:35:48.056Z,86.43
2024-02-11T11:38:21.061Z,85.53
2024-02-11T11:40:52.510Z,86.74
2024-02-11T11:43:22.342Z,86.57
2024-02-11T11:46:00.304Z,86.04
2024-02-11T11:48:29.282Z,86.70
2024-02-11T11:50:58.284Z,86.89
2024-02-11T11:53:30.457Z,87.05
2024-02-11T11:56:02.664Z,86.89
2024-02-11T11:58:32.467Z,86.61
2024-02-11T12:01:05.985Z,87.15
2024-02-11T12:03:36.600Z,87.28
2024-02-11T12:06:03.889Z,87.33
2024-02-11T12:08:32.214Z,87.00
2024-02-11T12:11:10.986Z,87.13
2024-02-11T12:13:39.368Z,87.08
2024-02-11T12:16:17.143Z,87.27
2024-02-11T12:18:45.571Z,87.40
2024-02-11T12:21:14.177Z,87.00
2024-02-11T12:23:43.412Z,86.28
2024-02-11T12:26:11.931Z,86.27
2024-02-11T12:28:40.817Z,86.80
2024-02-11T12:31:15.248Z,85.89
2024-02-11T12:33:47.606Z,86.00
2024-02-11T12:36:15.655Z,86.83
2024-02-11T12:38:48.127Z,86.69
2024-02-11T12:41:19.116Z,86.09
2024-02-11T12:43:47.861Z,86.14
2024-02-11T12:46:15.172Z,86.27
2024-02-11T12:48:44.482Z,85.83
2024-02-11T12:51:13.070Z,86.66
2024-02-11T12:53:45.060Z,86.11
2024-02-11T12:56:19.430Z,86.53
2024-02-11T12:58:52.546Z,86.56
2024-02-11T13:01:28.332Z,86.60
2024-02-11T13:04:00.752Z,86.46
2024-02-11T13:06:27.983Z,86.78
2024-02-11T13:09:00.736Z,86.94
2024-02-11T13:11:35.108Z,86.75
2024-02-11T13:14:05.091Z,86.37
2024-02-11T13:16:33.843Z,86.22
2024-02-11T13:19:07.334Z,86.98
2024-02-11T13:21:34.730Z,87.05
2024-02-11T13:24:02.832Z,86.36
2024-02-11T13:26:32.518Z,87.11
2024-02-11T13:29:06.159Z,87.47
2024-02-11T13:31:36.563Z,87.33
2024-02-11T13:34:04.638Z,87.20
2024-02-11T13:36:32.496Z,86.99
2024-02-11T13:38:59.638Z,86.94
2024-02-11T13:41:28.962Z,87.28
2024-02-11T13:43:58.662Z,87.31
2024-02-11T13:46:26.059Z,87.24
2024-02-11T13:48:59.088Z,87.51
2024-02-11T13:51:26.462Z,87.58
2024-02-11T13:53:53.448Z,87.55
2024-02-11T13:56:25.648Z,87.12
2024-02-11T13:58:52.982Z,87.61
2024-02-11T14:01:20.476Z,87.48
2024-02-11T14:03:48.174Z,86.94
2024-02-11T14:06:16.733Z,87.08
2024-02-11T14:08:49.446Z,86.74
2024-02-11T14:11:17.560Z,86.92
2024-02-11T14:13:44.888Z,86.95
2024-02-11T14:16:12.224Z,86.76
2024-02-11T14:18:42.430Z,87.25
2024-02-11T14:21:10.373Z,86.97
2024-02-11T14:23:39.688Z,86.82
2024-02-11T14:26:10.745Z,87.14
2024-02-11T14:28:38.369Z,87.61
2024-02-11T14:31:09.031Z,87.36
2024-02-11T14:33:36.913Z,87.80
2024-02-11T14:36:04.620Z,87.94
2024-02-11T14:38:32.123Z,87.72
2024-02-11T14:41:00.965Z,87.63
2024-02-11T14:43:28.117Z,87.26
2024-02-11T14:46:01.904Z,88.14
2024-02-11T14:48:29.420Z,87.74
2024-02-11T14:50:58.991Z,88.21
2024-02-11T14:53:26.577Z,87.79
2024-02-11T14:56:04.427Z,87.85
2024-02-11T14:58:37.309Z,88.17
2024-02-11T15:01:07.541Z,88.30
2024-02-11T15:03:41.759Z,88.07
2024-02-11T15:06:13.799Z,87.59
2024-02-11T15:08:46.849Z,88.25
2024-02-11T15:11:16.985Z,87.72
2024-02-11T15:13:45.217Z,87.99
2024-02-11T15:16:12.211Z,87.99
2024-02-11T15:18:41.918Z,88.27
2024-02-11T15:21:15.079Z,88.43
2024-02-11T15:23:44.185Z,87.72
2024-02-11T15:26:11.462Z,87.59
2024-02-11T15:28:38.473Z,87.99
2024-02-11T15:31:10.452Z,87.77
2024-02-11T15:33:43.362Z,87.70
2024-02-11T15:36:11.317Z,88.68
2024-02-11T15:38:40.838Z,88.27
2024-02-11T15:41:12.203Z,87.93
2024-02-11T15:43:39.493Z,88.06
2024-02-11T15:46:06.600Z,87.63
2024-02-11T15:48:37.400Z,87.83
2024-02-11T15:51:05.262Z,87.40
2024-02-11T15:53:37.341Z,87.78
2024-02-11T15:56:05.879Z,87.98
2024-02-11T15:58:33.184Z,87.84
2024-02-11T16:01:07.019Z,87.85
2024-02-11T16:03:34.178Z,88.01
2024-02-11T16:06:01.330Z,87.90
2024-02-11T16:08:29.533Z,87.63
2024-02-11T16:10:59.644Z,87.96
2024-02-11T16:13:31.112Z,87.92
2024-02-11T16:16:02.514Z,87.62
2024-02-11T16:18:32.997Z,87.81
2024-02-11T16:21:02.678Z,87.77
2024-02-11T16:23:41.784Z,88.28
2024-02-11T16:26:17.361Z,87.81
2024-02-11T16:28:45.465Z,87.91
2024-02-11T16:31:15.448Z,87.73
2024-02-11T16:33:42.600Z,87.78
2024-02-11T16:36:10.328Z,87.72
2024-02-11T16:38:38.583Z,87.91
2024-02-11T16:41:09.404Z,87.93
2024-02-11T16:43:55.028Z,88.08
2024-02-11T16:46:31.000Z,88.12
2024-02-11T16:49:02.312Z,87.78
2024-02-11T16:51:32.198Z,87.76
2024-02-11T16:54:05.795Z,87.61
2024-02-11T16:56:35.888Z,87.83
2024-02-11T16:59:06.096Z,88.42
2024-02-11T17:01:36.912Z,87.68
2024-02-11T17:04:07.411Z,88.47
2024-02-11T17:06:37.345Z,88.12
2024-02-11T17:09:06.480Z,87.69
2024-02-11T17:11:37.802Z,87.49
2024-02-11T17:14:15.520Z,88.13
2024-02-11T17:16:45.142Z,87.27
2024-02-11T17:19:17.974Z,87.54
2024-02-11T17:21:46.430Z,87.70
2024-02-11T17:24:16.414Z,88.01
2024-02-11T17:26:43.803Z,87.43
2024-02-11T17:29:13.305Z,87.64
2024-02-11T17:31:44.052Z,88.31
2024-02-11T17:34:15.101Z,88.12
2024-02-11T17:36:43.472Z,88.24
2024-02-11T17:39:12.977Z,87.24
2024-02-11T17:41:44.883Z,88.20
2024-02-11T17:44:13.947Z,87.91
2024-02-11T17:46:44.270Z,88.04
2024-02-11T17:49:18.283Z,87.60
2024-02-11T17:51:48.135Z,87.65
2024-02-11T17:54:16.338Z,87.67
2024-02-11T17:56:46.906Z,88.13
2024-02-11T17:59:15.441Z,88.25
2024-02-11T18:01:45.401Z,88.02
2024-02-11T18:04:13.114Z,88.42
2024-02-11T18:06:46.574Z,88.69
2024-02-11T18:09:14.222Z,88.72
2024-02-11T18:11:44.057Z,88.78
2024-02-11T18:14:18.954Z,88.45
2024-02-11T18:16:46.348Z,88.50
2024-02-11T18:19:14.007Z,88.71
2024-02-11T18:21:41.255Z,88.45
2024-02-11T18:24:10.899Z,88.93
2024-02-11T18:26:41.810Z,88.49
2024-02-11T18:29:09.026Z,88.54
2024-02-11T18:31:35.949Z,88.92
2024-02-11T18:34:03.166Z,88.19
2024-02-11T18:36:30.202Z,88.48
2024-02-11T18:38:57.270Z,87.78
2024-02-11T18:41:26.866Z,88.20
2024-02-11T18:43:54.073Z,88.26
2024-02-11T18:46:21.788Z,87.86
2024-02-11T18:48:49.555Z,88.37
2024-02-11T18:51:16.619Z,87.84
2024-02-11T18:53:43.654Z,87.95
2024-02-11T18:56:10.682Z,87.66
2024-02-11T18:58:40.882Z,88.03
2024-02-11T19:01:12.195Z,87.98
2024-02-11T19:03:44.483Z,88.29
2024-02-11T19:06:11.745Z,87.78
2024-02-11T19:08:42.625Z,87.42
2024-02-11T19:11:13.745Z,87.79
2024-02-11T19:13:43.544Z,87.17
2024-02-11T19:16:10.577Z,87.52
2024-02-11T19:18:42.858Z,88.42
2024-02-11T19:21:11.039Z,88.06
2024-02-11T19:23:38.587Z,87.61
2024-02-11T19:26:05.772Z,87.68
2024-02-11T19:28:33.840Z,87.58
2024-02-11T19:31:01.726Z,87.47
2024-02-11T19:33:29.429Z,87.57
2024-02-11T19:35:57.603Z,87.92
2024-02-11T19:38:27.075Z,88.33
2024-02-11T19:40:55.781Z,87.88
2024-02-11T19:43:23.063Z,87.57
2024-02-11T19:45:51.416Z,87.83
2024-02-11T19:48:18.490Z,87.84
2024-02-11T19:50:53.141Z,87.64
2024-02-11T19:53:34.110Z,88.18
2024-02-11T19:56:09.154Z,88.17
2024-02-11T19:58:42.577Z,87.75
2024-02-11T20:01:10.835Z,87.77
2024-02-11T20:03:39.039Z,87.77
2024-02-11T20:06:09.619Z,87.82
2024-02-11T20:08:37.829Z,87.99
2024-02-11T20:11:10.277Z,88.75
2024-02-11T20:13:37.720Z,88.39
2024-02-11T20:16:05.141Z,88.40
2024-02-11T20:18:32.379Z,88.08
2024-02-11T20:20:59.975Z,88.18
2024-02-11T20:23:27.548Z,87.80
2024-02-11T20:25:55.851Z,88.41
2024-02-11T20:28:26.136Z,88.07
2024-02-11T20:30:54.845Z,88.27
2024-02-11T20:33:22.664Z,87.96
2024-02-11T20:35:51.943Z,87.67
2024-02-11T20:38:20.472Z,88.24
2024-02-11T20:40:50.425Z,88.35
2024-02-11T20:43:17.493Z,87.84
2024-02-11T20:45:57.721Z,88.18
2024-02-11T20:48:27.765Z,87.97
2024-02-11T20:50:56.559Z,87.84
2024-02-11T20:53:24.759Z,87.88
2024-02-11T20:55:55.213Z,87.70
2024-02-11T20:58:22.191Z,87.91
2024-02-11T21:00:51.910Z,88.14
2024-02-11T21:03:27.830Z,88.19
2024-02-11T21:05:55.711Z,87.70
2024-02-11T21:08:22.772Z,87.93
2024-02-11T21:10:49.928Z,87.18
2024-02-11T21:13:18.328Z,87.50
2024-02-11T21:15:45.550Z,87.79
2024-02-11T21:18:13.083Z,88.36
2024-02-11T21:20:40.300Z,87.81
2024-02-11T21:23:11.914Z,88.40
2024-02-11T21:25:41.116Z,88.43
2024-02-11T21:28:10.675Z,88.14
2024-02-11T21:30:37.879Z,88.11
2024-02-11T21:33:07.930Z,87.78
2024-02-11T21:35:35.512Z,87.79
2024-02-11T21:38:05.143Z,87.76
2024-02-11T21:40:39.748Z,87.93
2024-02-11T21:43:14.729Z,87.65
2024-02-11T21:45:42.522Z,88.25
2024-02-11T21:48:09.480Z,87.49
2024-02-11T21:50:39.713Z,87.65
2024-02-11T21:53:10.989Z,87.61
2024-02-11T21:55:38.876Z,87.94
2024-02-11T21:58:05.828Z,87.34
2024-02-11T22:00:32.939Z,87.75
2024-02-11T22:03:00.366Z,87.76
2024-02-11T22:05:27.623Z,87.69
2024-02-11T22:07:57.602Z,87.96
2024-02-11T22:10:24.722Z,88.00
2024-02-11T22:12:51.743Z,88.06
2024-02-11T22:15:22.206Z,88.21
2024-02-11T22:17:53.808Z,88.17
2024-02-11T22:20:21.375Z,88.03
2024-02-11T22:22:49.144Z,88.57
2024-02-11T22:25:16.216Z,87.67
2024-02-11T22:27:43.284Z,88.24
2024-02-11T22:30:13.721Z,88.30
2024-02-11T22:32:41.121Z,88.16
2024-02-11T22:35:10.578Z,88.01
2024-02-11T22:37:39.860Z,87.67
2024-02-11T22:40:07.755Z,88.26
2024-02-11T22:42:35.502Z,87.71
2024-02-11T22:45:03.572Z,87.66
2024-02-11T22:47:31.212Z,88.65
2024-02-11T22:49:58.560Z,87.78
2024-02-11T22:52:25.572Z,88.09
2024-02-11T22:54:52.502Z,88.17
2024-02-11T22:57:19.828Z,88.01
2024-02-11T22:59:47.396Z,88.19
2024-02-11T23:02:18.564Z,88.23
2024-02-11T23:04:48.968Z,88.08
2024-02-11T23:07:16.784Z,88.07
2024-02-11T23:09:43.851Z,87.87
2024-02-11T23:12:11.660Z,87.93
2024-02-11T23:14:38.651Z,88.27
2024-02-11T23:17:06.341Z,88.08
2024-02-11T23:19:33.372Z,87.80
2024-02-11T23:22:01.365Z,87.85
2024-02-11T23:24:31.482Z,87.87
2024-02-11T23:27:07.210Z,88.08
2024-02-11T23:29:37.550Z,87.66
2024-02-11T23:32:08.574Z,88.59
2024-02-11T23:34:36.864Z,87.92
2024-02-11T23:37:10.745Z,88.04
2024-02-11T23:39:37.992Z,88.70
2024-02-11T23:42:08.731Z,88.20
2024-02-11T23:44:38.961Z,88.00
2024-02-11T23:47:07.175Z,87.39
2024-02-11T23:49:37.558Z,87.95
2024-02-11T23:52:06.506Z,87.95
2024-02-11T23:54:40.112Z,87.63
2024-02-11T23:57:08.457Z,87.80
2024-02-11T23:59:36.936Z,87.66
